sensor_id;sensor_type;location;lat;lon;timestamp;temperature;humidity
40676;DHT22;26359;48.750;9.314;2022-08-06T00:02:13;20.90;99.90
40676;DHT22;26359;48.750;9.314;2022-08-06T00:04:38;21.00;99.90
40676;DHT22;26359;48.750;9.314;2022-08-06T00:07:04;21.00;99.90
40676;DHT22;26359;48.750;9.314;2022-08-06T00:09:29;20.90;99.90
40676;DHT22;26359;48.750;9.314;2022-08-06T00:12:00;20.80;99.90
40676;DHT22;26359;48.750;9.314;2022-08-06T00:14:27;20.80;99.90
40676;DHT22;26359;48.750;9.314;2022-08-06T00:16:53;20.70;99.90
40676;DHT22;26359;48.750;9.314;2022-08-06T00:19:18;20.80;99.90
40676;DHT22;26359;48.750;9.314;2022-08-06T00:21:44;20.70;99.90
40676;DHT22;26359;48.750;9.314;2022-08-06T00:24:09;20.80;99.90
40676;DHT22;26359;48.750;9.314;2022-08-06T00:26:35;20.80;99.90
40676;DHT22;26359;48.750;9.314;2022-08-06T00:29:03;20.80;99.90
40676;DHT22;26359;48.750;9.314;2022-08-06T00:31:29;20.80;99.90
40676;DHT22;26359;48.750;9.314;2022-08-06T00:33:54;20.80;99.90
40676;DHT22;26359;48.750;9.314;2022-08-06T00:36:24;20.80;99.90
40676;DHT22;26359;48.750;9.314;2022-08-06T00:38:50;20.70;99.90
40676;DHT22;26359;48.750;9.314;2022-08-06T00:41:18;20.80;99.90
40676;DHT22;26359;48.750;9.314;2022-08-06T00:43:43;20.80;99.90
40676;DHT22;26359;48.750;9.314;2022-08-06T00:46:09;20.80;99.90
40676;DHT22;26359;48.750;9.314;2022-08-06T00:48:35;20.80;99.90
40676;DHT22;26359;48.750;9.314;2022-08-06T00:51:00;20.80;99.90
40676;DHT22;26359;48.750;9.314;2022-08-06T00:53:26;20.80;99.90
40676;DHT22;26359;48.750;9.314;2022-08-06T00:55:52;20.70;99.90
40676;DHT22;26359;48.750;9.314;2022-08-06T00:58:17;20.70;99.90
40676;DHT22;26359;48.750;9.314;2022-08-06T01:00:43;20.70;99.90
40676;DHT22;26359;48.750;9.314;2022-08-06T01:03:08;20.70;99.90
40676;DHT22;26359;48.750;9.314;2022-08-06T01:05:35;20.60;99.90
40676;DHT22;26359;48.750;9.314;2022-08-06T01:08:01;20.50;99.90
40676;DHT22;26359;48.750;9.314;2022-08-06T01:10:27;20.50;99.90
40676;DHT22;26359;48.750;9.314;2022-08-06T01:12:53;20.50;99.90
40676;DHT22;26359;48.750;9.314;2022-08-06T01:15:18;20.50;99.90
40676;DHT22;26359;48.750;9.314;2022-08-06T01:17:57;20.40;99.90
40676;DHT22;26359;48.750;9.314;2022-08-06T01:23:24;20.50;99.90
40676;DHT22;26359;48.750;9.314;2022-08-06T01:26:12;20.50;99.90
40676;DHT22;26359;48.750;9.314;2022-08-06T01:28:47;20.40;99.90
40676;DHT22;26359;48.750;9.314;2022-08-06T01:31:22;20.40;99.90
40676;DHT22;26359;48.750;9.314;2022-08-06T01:33:52;20.40;99.90
40676;DHT22;26359;48.750;9.314;2022-08-06T01:36:24;20.40;99.90
40676;DHT22;26359;48.750;9.314;2022-08-06T01:38:54;20.40;99.90
40676;DHT22;26359;48.750;9.314;2022-08-06T01:41:24;20.30;99.90
40676;DHT22;26359;48.750;9.314;2022-08-06T01:44:10;20.30;99.90
40676;DHT22;26359;48.750;9.314;2022-08-06T01:46:37;20.30;99.90
40676;DHT22;26359;48.750;9.314;2022-08-06T01:49:04;20.20;99.90
40676;DHT22;26359;48.750;9.314;2022-08-06T01:51:32;20.20;99.90
40676;DHT22;26359;48.750;9.314;2022-08-06T01:54:02;20.10;99.90
40676;DHT22;26359;48.750;9.314;2022-08-06T01:56:30;20.00;99.90
40676;DHT22;26359;48.750;9.314;2022-08-06T01:58:59;19.90;99.90
40676;DHT22;26359;48.750;9.314;2022-08-06T02:01:26;19.90;99.90
40676;DHT22;26359;48.750;9.314;2022-08-06T02:03:55;19.90;99.90
40676;DHT22;26359;48.750;9.314;2022-08-06T02:06:24;20.00;99.90
40676;DHT22;26359;48.750;9.314;2022-08-06T02:08:51;20.00;99.90
40676;DHT22;26359;48.750;9.314;2022-08-06T02:11:18;20.00;99.90
40676;DHT22;26359;48.750;9.314;2022-08-06T02:13:45;20.00;99.90
40676;DHT22;26359;48.750;9.314;2022-08-06T02:16:12;19.90;99.90
40676;DHT22;26359;48.750;9.314;2022-08-06T02:18:41;20.00;99.90
40676;DHT22;26359;48.750;9.314;2022-08-06T02:21:12;20.00;99.90
40676;DHT22;26359;48.750;9.314;2022-08-06T02:23:41;20.00;99.90
40676;DHT22;26359;48.750;9.314;2022-08-06T02:26:08;20.00;99.90
40676;DHT22;26359;48.750;9.314;2022-08-06T02:28:34;20.00;99.90
40676;DHT22;26359;48.750;9.314;2022-08-06T02:31:00;19.90;99.90
40676;DHT22;26359;48.750;9.314;2022-08-06T02:33:27;19.90;99.90
40676;DHT22;26359;48.750;9.314;2022-08-06T02:38:39;19.90;99.90
40676;DHT22;26359;48.750;9.314;2022-08-06T02:41:30;19.90;99.90
40676;DHT22;26359;48.750;9.314;2022-08-06T02:44:45;19.90;99.90
40676;DHT22;26359;48.750;9.314;2022-08-06T02:47:15;19.90;99.90
40676;DHT22;26359;48.750;9.314;2022-08-06T02:49:45;19.90;99.90
40676;DHT22;26359;48.750;9.314;2022-08-06T02:52:22;19.90;99.90
40676;DHT22;26359;48.750;9.314;2022-08-06T02:54:58;19.90;99.90
40676;DHT22;26359;48.750;9.314;2022-08-06T02:57:31;19.80;99.90
40676;DHT22;26359;48.750;9.314;2022-08-06T03:00:04;19.70;99.90
40676;DHT22;26359;48.750;9.314;2022-08-06T03:02:33;19.70;99.90
40676;DHT22;26359;48.750;9.314;2022-08-06T03:05:01;19.60;99.90
40676;DHT22;26359;48.750;9.314;2022-08-06T03:07:30;19.60;99.90
40676;DHT22;26359;48.750;9.314;2022-08-06T03:09:58;19.60;99.90
40676;DHT22;26359;48.750;9.314;2022-08-06T03:12:24;19.60;99.90
40676;DHT22;26359;48.750;9.314;2022-08-06T03:14:53;19.50;99.90
40676;DHT22;26359;48.750;9.314;2022-08-06T03:17:19;19.50;99.90
40676;DHT22;26359;48.750;9.314;2022-08-06T03:19:46;19.50;99.90
40676;DHT22;26359;48.750;9.314;2022-08-06T03:22:12;19.50;99.90
40676;DHT22;26359;48.750;9.314;2022-08-06T03:24:39;19.50;99.90
40676;DHT22;26359;48.750;9.314;2022-08-06T03:27:08;19.50;99.90
40676;DHT22;26359;48.750;9.314;2022-08-06T03:29:37;19.40;99.90
40676;DHT22;26359;48.750;9.314;2022-08-06T03:32:05;19.40;99.90
40676;DHT22;26359;48.750;9.314;2022-08-06T03:34:33;19.40;99.90
40676;DHT22;26359;48.750;9.314;2022-08-06T03:37:01;19.40;99.90
40676;DHT22;26359;48.750;9.314;2022-08-06T03:39:29;19.40;99.90
40676;DHT22;26359;48.750;9.314;2022-08-06T03:41:56;19.40;99.90
40676;DHT22;26359;48.750;9.314;2022-08-06T03:44:22;19.40;99.90
40676;DHT22;26359;48.750;9.314;2022-08-06T03:46:53;19.40;99.90
40676;DHT22;26359;48.750;9.314;2022-08-06T03:49:26;19.30;99.90
40676;DHT22;26359;48.750;9.314;2022-08-06T03:51:53;19.30;99.90
40676;DHT22;26359;48.750;9.314;2022-08-06T03:54:26;19.30;99.90
40676;DHT22;26359;48.750;9.314;2022-08-06T03:56:53;19.20;99.90
40676;DHT22;26359;48.750;9.314;2022-08-06T03:59:21;19.20;99.90
40676;DHT22;26359;48.750;9.314;2022-08-06T04:01:48;19.20;99.90
40676;DHT22;26359;48.750;9.314;2022-08-06T04:04:15;19.20;99.90
40676;DHT22;26359;48.750;9.314;2022-08-06T04:06:42;19.20;99.90
40676;DHT22;26359;48.750;9.314;2022-08-06T04:09:08;19.30;99.90
40676;DHT22;26359;48.750;9.314;2022-08-06T04:11:35;19.20;99.90
40676;DHT22;26359;48.750;9.314;2022-08-06T04:14:02;19.30;99.90
40676;DHT22;26359;48.750;9.314;2022-08-06T04:16:27;19.20;99.90
40676;DHT22;26359;48.750;9.314;2022-08-06T04:18:54;19.30;99.90
40676;DHT22;26359;48.750;9.314;2022-08-06T04:21:24;19.20;99.90
40676;DHT22;26359;48.750;9.314;2022-08-06T04:23:50;19.20;99.90
40676;DHT22;26359;48.750;9.314;2022-08-06T04:26:19;19.20;99.90
40676;DHT22;26359;48.750;9.314;2022-08-06T04:28:49;19.20;99.90
40676;DHT22;26359;48.750;9.314;2022-08-06T04:31:15;19.20;99.90
40676;DHT22;26359;48.750;9.314;2022-08-06T04:33:43;19.10;99.90
40676;DHT22;26359;48.750;9.314;2022-08-06T04:36:09;19.10;99.90
40676;DHT22;26359;48.750;9.314;2022-08-06T04:38:35;19.10;99.90
40676;DHT22;26359;48.750;9.314;2022-08-06T04:41:02;19.10;99.90
40676;DHT22;26359;48.750;9.314;2022-08-06T04:43:28;19.20;99.90
40676;DHT22;26359;48.750;9.314;2022-08-06T04:45:55;19.10;99.90
40676;DHT22;26359;48.750;9.314;2022-08-06T04:48:21;19.00;99.90
40676;DHT22;26359;48.750;9.314;2022-08-06T04:50:47;18.90;99.90
40676;DHT22;26359;48.750;9.314;2022-08-06T04:53:16;18.90;99.90
40676;DHT22;26359;48.750;9.314;2022-08-06T04:55:43;18.90;99.90
40676;DHT22;26359;48.750;9.314;2022-08-06T04:58:10;18.90;99.90
40676;DHT22;26359;48.750;9.314;2022-08-06T05:00:39;18.90;99.90
40676;DHT22;26359;48.750;9.314;2022-08-06T05:03:05;18.90;99.90
40676;DHT22;26359;48.750;9.314;2022-08-06T05:05:34;18.80;99.90
40676;DHT22;26359;48.750;9.314;2022-08-06T05:08:00;18.90;99.90
40676;DHT22;26359;48.750;9.314;2022-08-06T05:10:32;18.80;99.90
40676;DHT22;26359;48.750;9.314;2022-08-06T05:12:59;18.80;99.90
40676;DHT22;26359;48.750;9.314;2022-08-06T05:15:31;18.80;99.90
40676;DHT22;26359;48.750;9.314;2022-08-06T05:18:07;18.80;99.90
40676;DHT22;26359;48.750;9.314;2022-08-06T05:20:36;18.80;99.90
40676;DHT22;26359;48.750;9.314;2022-08-06T05:23:07;18.80;99.90
40676;DHT22;26359;48.750;9.314;2022-08-06T05:25:36;18.80;99.90
40676;DHT22;26359;48.750;9.314;2022-08-06T05:28:02;18.90;99.90
40676;DHT22;26359;48.750;9.314;2022-08-06T05:30:28;19.00;99.90
40676;DHT22;26359;48.750;9.314;2022-08-06T05:32:54;19.10;99.90
40676;DHT22;26359;48.750;9.314;2022-08-06T05:35:19;19.20;99.90
40676;DHT22;26359;48.750;9.314;2022-08-06T05:37:45;19.30;99.90
40676;DHT22;26359;48.750;9.314;2022-08-06T05:40:10;19.30;99.90
40676;DHT22;26359;48.750;9.314;2022-08-06T05:42:36;19.30;99.90
40676;DHT22;26359;48.750;9.314;2022-08-06T05:45:02;19.40;99.90
40676;DHT22;26359;48.750;9.314;2022-08-06T05:47:32;19.40;99.90
40676;DHT22;26359;48.750;9.314;2022-08-06T05:50:11;19.50;99.90
40676;DHT22;26359;48.750;9.314;2022-08-06T05:52:48;19.60;99.90
40676;DHT22;26359;48.750;9.314;2022-08-06T05:55:20;19.70;99.90
40676;DHT22;26359;48.750;9.314;2022-08-06T05:57:54;19.80;99.90
40676;DHT22;26359;48.750;9.314;2022-08-06T06:00:23;19.80;99.90
40676;DHT22;26359;48.750;9.314;2022-08-06T06:02:52;19.80;99.90
40676;DHT22;26359;48.750;9.314;2022-08-06T06:05:20;19.70;99.90
40676;DHT22;26359;48.750;9.314;2022-08-06T06:07:47;19.80;99.90
40676;DHT22;26359;48.750;9.314;2022-08-06T06:10:12;19.80;99.90
40676;DHT22;26359;48.750;9.314;2022-08-06T06:12:40;19.60;99.90
40676;DHT22;26359;48.750;9.314;2022-08-06T06:15:07;19.60;99.90
40676;DHT22;26359;48.750;9.314;2022-08-06T06:20:18;19.50;99.90
40676;DHT22;26359;48.750;9.314;2022-08-06T06:25:22;19.50;99.90
40676;DHT22;26359;48.750;9.314;2022-08-06T06:30:49;19.80;99.90
40676;DHT22;26359;48.750;9.314;2022-08-06T06:35:57;20.00;99.90
40676;DHT22;26359;48.750;9.314;2022-08-06T06:38:52;19.80;99.90
40676;DHT22;26359;48.750;9.314;2022-08-06T06:43:56;19.70;99.90
40676;DHT22;26359;48.750;9.314;2022-08-06T06:46:39;19.80;99.90
40676;DHT22;26359;48.750;9.314;2022-08-06T06:49:14;19.80;99.90
40676;DHT22;26359;48.750;9.314;2022-08-06T06:51:45;19.80;99.90
40676;DHT22;26359;48.750;9.314;2022-08-06T06:54:20;19.90;99.90
40676;DHT22;26359;48.750;9.314;2022-08-06T06:56:49;19.80;99.90
40676;DHT22;26359;48.750;9.314;2022-08-06T06:59:32;19.80;99.90
40676;DHT22;26359;48.750;9.314;2022-08-06T07:02:00;20.00;99.90
40676;DHT22;26359;48.750;9.314;2022-08-06T07:04:27;20.20;99.90
40676;DHT22;26359;48.750;9.314;2022-08-06T07:06:57;20.10;99.90
40676;DHT22;26359;48.750;9.314;2022-08-06T07:09:25;20.20;99.90
40676;DHT22;26359;48.750;9.314;2022-08-06T07:11:54;20.20;99.90
40676;DHT22;26359;48.750;9.314;2022-08-06T07:14:21;20.20;99.90
40676;DHT22;26359;48.750;9.314;2022-08-06T07:16:50;20.30;99.90
40676;DHT22;26359;48.750;9.314;2022-08-06T07:19:18;20.30;99.90
40676;DHT22;26359;48.750;9.314;2022-08-06T07:21:46;20.20;99.90
40676;DHT22;26359;48.750;9.314;2022-08-06T07:24:13;20.20;99.90
40676;DHT22;26359;48.750;9.314;2022-08-06T07:26:42;20.20;99.90
40676;DHT22;26359;48.750;9.314;2022-08-06T07:29:09;20.30;99.90
40676;DHT22;26359;48.750;9.314;2022-08-06T07:31:36;20.20;99.90
40676;DHT22;26359;48.750;9.314;2022-08-06T07:34:03;20.20;99.90
40676;DHT22;26359;48.750;9.314;2022-08-06T07:36:39;20.30;99.90
40676;DHT22;26359;48.750;9.314;2022-08-06T07:39:08;20.40;99.90
40676;DHT22;26359;48.750;9.314;2022-08-06T07:41:36;20.50;99.90
40676;DHT22;26359;48.750;9.314;2022-08-06T07:44:03;20.50;99.90
40676;DHT22;26359;48.750;9.314;2022-08-06T07:46:43;20.60;99.90
40676;DHT22;26359;48.750;9.314;2022-08-06T07:49:13;20.60;99.90
40676;DHT22;26359;48.750;9.314;2022-08-06T07:51:41;20.70;99.90
40676;DHT22;26359;48.750;9.314;2022-08-06T07:54:08;20.60;99.90
40676;DHT22;26359;48.750;9.314;2022-08-06T07:56:36;20.50;99.90
40676;DHT22;26359;48.750;9.314;2022-08-06T07:59:03;20.50;99.90
40676;DHT22;26359;48.750;9.314;2022-08-06T08:01:29;20.60;99.90
40676;DHT22;26359;48.750;9.314;2022-08-06T08:03:56;20.40;99.90
40676;DHT22;26359;48.750;9.314;2022-08-06T08:06:41;20.30;99.90
40676;DHT22;26359;48.750;9.314;2022-08-06T08:09:13;20.40;99.90
40676;DHT22;26359;48.750;9.314;2022-08-06T08:11:44;20.60;99.90
40676;DHT22;26359;48.750;9.314;2022-08-06T08:14:12;20.50;99.90
40676;DHT22;26359;48.750;9.314;2022-08-06T08:16:39;20.50;99.90
40676;DHT22;26359;48.750;9.314;2022-08-06T08:21:57;20.70;99.90
40676;DHT22;26359;48.750;9.314;2022-08-06T08:24:24;20.70;99.90
40676;DHT22;26359;48.750;9.314;2022-08-06T08:26:50;20.60;99.90
40676;DHT22;26359;48.750;9.314;2022-08-06T08:29:15;20.50;99.90
40676;DHT22;26359;48.750;9.314;2022-08-06T08:31:41;20.50;99.90
40676;DHT22;26359;48.750;9.314;2022-08-06T08:34:06;20.40;99.90
40676;DHT22;26359;48.750;9.314;2022-08-06T08:36:32;20.40;99.90
40676;DHT22;26359;48.750;9.314;2022-08-06T08:38:58;20.30;99.90
40676;DHT22;26359;48.750;9.314;2022-08-06T08:41:33;20.40;99.90
40676;DHT22;26359;48.750;9.314;2022-08-06T08:44:06;20.30;99.90
40676;DHT22;26359;48.750;9.314;2022-08-06T08:46:37;20.20;99.90
40676;DHT22;26359;48.750;9.314;2022-08-06T08:49:04;20.10;99.90
40676;DHT22;26359;48.750;9.314;2022-08-06T08:51:32;20.20;99.90
40676;DHT22;26359;48.750;9.314;2022-08-06T08:53:59;20.20;99.90
40676;DHT22;26359;48.750;9.314;2022-08-06T08:56:27;20.10;99.90
40676;DHT22;26359;48.750;9.314;2022-08-06T08:58:52;20.10;99.90
40676;DHT22;26359;48.750;9.314;2022-08-06T09:01:19;20.10;99.90
40676;DHT22;26359;48.750;9.314;2022-08-06T09:03:45;19.90;99.90
40676;DHT22;26359;48.750;9.314;2022-08-06T09:06:11;20.00;99.90
40676;DHT22;26359;48.750;9.314;2022-08-06T09:08:37;20.10;99.90
40676;DHT22;26359;48.750;9.314;2022-08-06T09:11:04;20.20;99.90
40676;DHT22;26359;48.750;9.314;2022-08-06T09:13:30;20.30;99.90
40676;DHT22;26359;48.750;9.314;2022-08-06T09:15:57;20.30;99.90
40676;DHT22;26359;48.750;9.314;2022-08-06T09:18:24;20.40;99.90
40676;DHT22;26359;48.750;9.314;2022-08-06T09:20:51;20.40;99.90
40676;DHT22;26359;48.750;9.314;2022-08-06T09:23:16;20.50;99.90
40676;DHT22;26359;48.750;9.314;2022-08-06T09:30:39;20.60;99.90
40676;DHT22;26359;48.750;9.314;2022-08-06T09:33:10;20.70;99.90
40676;DHT22;26359;48.750;9.314;2022-08-06T09:35:36;20.70;99.90
40676;DHT22;26359;48.750;9.314;2022-08-06T09:38:04;20.80;99.90
40676;DHT22;26359;48.750;9.314;2022-08-06T09:40:30;21.10;99.90
40676;DHT22;26359;48.750;9.314;2022-08-06T09:42:55;21.10;99.90
40676;DHT22;26359;48.750;9.314;2022-08-06T09:45:23;21.00;99.90
40676;DHT22;26359;48.750;9.314;2022-08-06T09:48:04;21.00;99.90
40676;DHT22;26359;48.750;9.314;2022-08-06T09:50:41;20.90;99.90
40676;DHT22;26359;48.750;9.314;2022-08-06T09:53:07;20.90;99.90
40676;DHT22;26359;48.750;9.314;2022-08-06T09:55:33;21.10;99.90
40676;DHT22;26359;48.750;9.314;2022-08-06T09:57:59;21.10;99.90
40676;DHT22;26359;48.750;9.314;2022-08-06T10:00:27;21.20;99.90
40676;DHT22;26359;48.750;9.314;2022-08-06T10:03:00;21.40;99.90
40676;DHT22;26359;48.750;9.314;2022-08-06T10:05:26;21.50;99.90
40676;DHT22;26359;48.750;9.314;2022-08-06T10:08:06;21.60;99.90
40676;DHT22;26359;48.750;9.314;2022-08-06T10:10:50;21.80;99.90
40676;DHT22;26359;48.750;9.314;2022-08-06T10:13:23;21.90;99.90
40676;DHT22;26359;48.750;9.314;2022-08-06T10:15:55;21.80;99.90
40676;DHT22;26359;48.750;9.314;2022-08-06T10:21:03;21.80;99.90
40676;DHT22;26359;48.750;9.314;2022-08-06T10:23:31;21.80;99.90
40676;DHT22;26359;48.750;9.314;2022-08-06T10:25:58;21.70;99.90
40676;DHT22;26359;48.750;9.314;2022-08-06T10:28:26;21.70;99.90
40676;DHT22;26359;48.750;9.314;2022-08-06T10:30:53;21.80;99.90
40676;DHT22;26359;48.750;9.314;2022-08-06T10:33:19;21.80;99.90
40676;DHT22;26359;48.750;9.314;2022-08-06T10:35:46;21.80;99.90
40676;DHT22;26359;48.750;9.314;2022-08-06T10:38:15;21.90;99.90
40676;DHT22;26359;48.750;9.314;2022-08-06T10:40:43;22.00;99.90
40676;DHT22;26359;48.750;9.314;2022-08-06T10:43:10;22.20;99.90
40676;DHT22;26359;48.750;9.314;2022-08-06T10:45:37;22.30;99.90
40676;DHT22;26359;48.750;9.314;2022-08-06T10:48:04;22.30;99.90
40676;DHT22;26359;48.750;9.314;2022-08-06T10:50:30;22.30;99.90
40676;DHT22;26359;48.750;9.314;2022-08-06T10:52:56;22.20;99.90
40676;DHT22;26359;48.750;9.314;2022-08-06T10:55:22;22.30;99.90
40676;DHT22;26359;48.750;9.314;2022-08-06T10:57:48;22.30;99.90
40676;DHT22;26359;48.750;9.314;2022-08-06T11:00:14;22.20;99.90
40676;DHT22;26359;48.750;9.314;2022-08-06T11:03:13;22.30;99.90
40676;DHT22;26359;48.750;9.314;2022-08-06T11:05:39;22.40;99.90
40676;DHT22;26359;48.750;9.314;2022-08-06T11:11:10;22.50;99.90
40676;DHT22;26359;48.750;9.314;2022-08-06T11:14:00;22.70;99.90
40676;DHT22;26359;48.750;9.314;2022-08-06T11:16:28;22.90;99.90
40676;DHT22;26359;48.750;9.314;2022-08-06T11:19:25;23.10;99.90
40676;DHT22;26359;48.750;9.314;2022-08-06T11:22:02;23.20;99.90
40676;DHT22;26359;48.750;9.314;2022-08-06T11:24:27;23.00;99.90
40676;DHT22;26359;48.750;9.314;2022-08-06T11:26:53;23.00;99.90
40676;DHT22;26359;48.750;9.314;2022-08-06T11:29:18;23.20;99.70
40676;DHT22;26359;48.750;9.314;2022-08-06T11:31:47;23.40;99.90
40676;DHT22;26359;48.750;9.314;2022-08-06T11:34:16;23.60;99.90
40676;DHT22;26359;48.750;9.314;2022-08-06T11:37:02;24.10;99.90
40676;DHT22;26359;48.750;9.314;2022-08-06T11:39:27;24.40;99.00
40676;DHT22;26359;48.750;9.314;2022-08-06T11:42:02;24.60;97.60
40676;DHT22;26359;48.750;9.314;2022-08-06T11:44:30;24.80;98.40
40676;DHT22;26359;48.750;9.314;2022-08-06T11:49:40;25.20;99.10
40676;DHT22;26359;48.750;9.314;2022-08-06T11:52:07;25.80;98.10
40676;DHT22;26359;48.750;9.314;2022-08-06T12:02:06;25.50;96.30
40676;DHT22;26359;48.750;9.314;2022-08-06T12:12:40;25.00;96.50
40676;DHT22;26359;48.750;9.314;2022-08-06T12:17:39;24.60;97.60
40676;DHT22;26359;48.750;9.314;2022-08-06T12:20:06;24.90;97.10
40676;DHT22;26359;48.750;9.314;2022-08-06T12:22:33;25.00;96.10
40676;DHT22;26359;48.750;9.314;2022-08-06T12:25:01;24.90;95.90
40676;DHT22;26359;48.750;9.314;2022-08-06T12:27:32;24.70;96.70
40676;DHT22;26359;48.750;9.314;2022-08-06T12:29:59;24.70;96.00
40676;DHT22;26359;48.750;9.314;2022-08-06T12:32:29;24.80;96.90
40676;DHT22;26359;48.750;9.314;2022-08-06T12:34:59;24.90;96.10
40676;DHT22;26359;48.750;9.314;2022-08-06T12:37:43;25.10;96.10
40676;DHT22;26359;48.750;9.314;2022-08-06T12:40:13;24.90;95.70
40676;DHT22;26359;48.750;9.314;2022-08-06T12:45:30;25.20;95.90
40676;DHT22;26359;48.750;9.314;2022-08-06T12:48:07;25.30;94.40
40676;DHT22;26359;48.750;9.314;2022-08-06T12:50:35;25.10;95.00
40676;DHT22;26359;48.750;9.314;2022-08-06T12:53:15;24.90;96.40
40676;DHT22;26359;48.750;9.314;2022-08-06T12:55:48;24.80;95.30
40676;DHT22;26359;48.750;9.314;2022-08-06T12:58:20;24.80;96.50
40676;DHT22;26359;48.750;9.314;2022-08-06T13:00:52;24.90;94.80
40676;DHT22;26359;48.750;9.314;2022-08-06T13:03:21;25.00;96.90
40676;DHT22;26359;48.750;9.314;2022-08-06T13:05:47;25.40;96.00
40676;DHT22;26359;48.750;9.314;2022-08-06T13:08:13;25.40;95.10
40676;DHT22;26359;48.750;9.314;2022-08-06T13:10:39;25.50;94.30
40676;DHT22;26359;48.750;9.314;2022-08-06T13:13:12;25.60;95.10
40676;DHT22;26359;48.750;9.314;2022-08-06T13:15:37;25.70;95.00
40676;DHT22;26359;48.750;9.314;2022-08-06T13:20:37;25.50;94.40
40676;DHT22;26359;48.750;9.314;2022-08-06T13:23:02;25.50;94.30
40676;DHT22;26359;48.750;9.314;2022-08-06T13:25:28;25.30;94.70
40676;DHT22;26359;48.750;9.314;2022-08-06T13:28:14;25.50;95.00
40676;DHT22;26359;48.750;9.314;2022-08-06T13:30:42;25.70;94.90
40676;DHT22;26359;48.750;9.314;2022-08-06T13:33:15;25.80;94.20
40676;DHT22;26359;48.750;9.314;2022-08-06T13:35:42;26.00;94.10
40676;DHT22;26359;48.750;9.314;2022-08-06T13:38:08;26.10;92.20
40676;DHT22;26359;48.750;9.314;2022-08-06T13:40:48;26.20;92.10
40676;DHT22;26359;48.750;9.314;2022-08-06T13:43:14;26.30;92.50
40676;DHT22;26359;48.750;9.314;2022-08-06T13:45:40;26.60;92.00
40676;DHT22;26359;48.750;9.314;2022-08-06T13:48:08;26.40;91.80
40676;DHT22;26359;48.750;9.314;2022-08-06T13:50:38;26.40;91.40
40676;DHT22;26359;48.750;9.314;2022-08-06T13:53:05;26.60;91.70
40676;DHT22;26359;48.750;9.314;2022-08-06T13:55:31;26.70;92.20
40676;DHT22;26359;48.750;9.314;2022-08-06T13:57:58;26.90;92.50
40676;DHT22;26359;48.750;9.314;2022-08-06T14:00:24;27.30;92.80
40676;DHT22;26359;48.750;9.314;2022-08-06T14:02:50;27.00;91.20
40676;DHT22;26359;48.750;9.314;2022-08-06T14:05:16;26.90;92.10
40676;DHT22;26359;48.750;9.314;2022-08-06T14:07:41;27.20;91.50
40676;DHT22;26359;48.750;9.314;2022-08-06T14:10:08;27.20;90.80
40676;DHT22;26359;48.750;9.314;2022-08-06T14:12:33;27.30;91.60
40676;DHT22;26359;48.750;9.314;2022-08-06T14:14:59;27.40;91.60
40676;DHT22;26359;48.750;9.314;2022-08-06T14:17:25;27.70;91.50
40676;DHT22;26359;48.750;9.314;2022-08-06T14:19:51;27.80;90.20
40676;DHT22;26359;48.750;9.314;2022-08-06T14:22:16;27.90;90.10
40676;DHT22;26359;48.750;9.314;2022-08-06T14:24:43;27.80;88.20
40676;DHT22;26359;48.750;9.314;2022-08-06T14:27:09;27.70;90.80
40676;DHT22;26359;48.750;9.314;2022-08-06T14:29:35;27.60;91.20
40676;DHT22;26359;48.750;9.314;2022-08-06T14:32:04;27.30;89.60
40676;DHT22;26359;48.750;9.314;2022-08-06T14:34:31;27.40;90.60
40676;DHT22;26359;48.750;9.314;2022-08-06T14:36:57;27.70;90.80
40676;DHT22;26359;48.750;9.314;2022-08-06T14:39:23;27.80;91.10
40676;DHT22;26359;48.750;9.314;2022-08-06T14:41:49;27.60;91.30
40676;DHT22;26359;48.750;9.314;2022-08-06T14:44:33;27.50;91.60
40676;DHT22;26359;48.750;9.314;2022-08-06T14:47:17;27.20;90.40
40676;DHT22;26359;48.750;9.314;2022-08-06T14:49:43;26.80;90.10
40676;DHT22;26359;48.750;9.314;2022-08-06T14:52:08;26.50;88.70
40676;DHT22;26359;48.750;9.314;2022-08-06T14:54:34;26.30;91.60
40676;DHT22;26359;48.750;9.314;2022-08-06T14:57:03;26.40;91.20
40676;DHT22;26359;48.750;9.314;2022-08-06T14:59:29;26.30;90.80
40676;DHT22;26359;48.750;9.314;2022-08-06T15:01:55;26.10;90.30
40676;DHT22;26359;48.750;9.314;2022-08-06T15:04:21;26.00;91.20
40676;DHT22;26359;48.750;9.314;2022-08-06T15:06:47;26.10;90.80
40676;DHT22;26359;48.750;9.314;2022-08-06T15:09:12;26.10;91.40
40676;DHT22;26359;48.750;9.314;2022-08-06T15:11:38;26.30;91.10
40676;DHT22;26359;48.750;9.314;2022-08-06T15:14:04;26.20;90.50
40676;DHT22;26359;48.750;9.314;2022-08-06T15:16:30;26.30;91.50
40676;DHT22;26359;48.750;9.314;2022-08-06T15:18:56;26.50;91.00
40676;DHT22;26359;48.750;9.314;2022-08-06T15:21:22;26.90;87.90
40676;DHT22;26359;48.750;9.314;2022-08-06T15:23:47;27.20;88.10
40676;DHT22;26359;48.750;9.314;2022-08-06T15:26:14;27.20;90.20
40676;DHT22;26359;48.750;9.314;2022-08-06T15:28:40;27.00;90.20
40676;DHT22;26359;48.750;9.314;2022-08-06T15:31:05;26.90;91.20
40676;DHT22;26359;48.750;9.314;2022-08-06T15:33:32;27.10;90.10
40676;DHT22;26359;48.750;9.314;2022-08-06T15:35:58;27.00;87.10
40676;DHT22;26359;48.750;9.314;2022-08-06T15:38:28;26.90;89.30
40676;DHT22;26359;48.750;9.314;2022-08-06T15:40:54;26.80;90.30
40676;DHT22;26359;48.750;9.314;2022-08-06T15:43:20;27.00;90.20
40676;DHT22;26359;48.750;9.314;2022-08-06T15:45:46;27.40;90.50
40676;DHT22;26359;48.750;9.314;2022-08-06T15:48:12;27.60;90.60
40676;DHT22;26359;48.750;9.314;2022-08-06T15:50:42;27.60;89.60
40676;DHT22;26359;48.750;9.314;2022-08-06T15:53:09;27.50;90.50
40676;DHT22;26359;48.750;9.314;2022-08-06T15:55:35;27.30;87.80
40676;DHT22;26359;48.750;9.314;2022-08-06T15:58:01;27.00;90.80
40676;DHT22;26359;48.750;9.314;2022-08-06T16:00:26;26.70;90.10
40676;DHT22;26359;48.750;9.314;2022-08-06T16:02:52;26.20;90.50
40676;DHT22;26359;48.750;9.314;2022-08-06T16:05:19;26.00;90.60
40676;DHT22;26359;48.750;9.314;2022-08-06T16:07:45;26.00;90.10
40676;DHT22;26359;48.750;9.314;2022-08-06T16:10:11;26.00;90.40
40676;DHT22;26359;48.750;9.314;2022-08-06T16:12:36;25.90;89.30
40676;DHT22;26359;48.750;9.314;2022-08-06T16:15:06;25.90;90.40
40676;DHT22;26359;48.750;9.314;2022-08-06T16:17:32;26.10;90.40
40676;DHT22;26359;48.750;9.314;2022-08-06T16:19:58;26.40;88.60
40676;DHT22;26359;48.750;9.314;2022-08-06T16:22:24;26.60;90.00
40676;DHT22;26359;48.750;9.314;2022-08-06T16:24:49;26.90;88.80
40676;DHT22;26359;48.750;9.314;2022-08-06T16:27:16;26.70;87.80
40676;DHT22;26359;48.750;9.314;2022-08-06T16:29:45;26.50;87.40
40676;DHT22;26359;48.750;9.314;2022-08-06T16:32:11;26.30;90.10
40676;DHT22;26359;48.750;9.314;2022-08-06T16:34:41;26.20;90.30
40676;DHT22;26359;48.750;9.314;2022-08-06T16:37:07;26.10;90.80
40676;DHT22;26359;48.750;9.314;2022-08-06T16:39:32;26.10;90.70